Dizelist — EMVZ — position and weather

sailwx.info

Track history (hours):
 
Tides and Currents Weather Stations Pressure Air Temp Water Temp Dewpoint Dewpoint Depression Visibility Wind Speed Wind Dir Waves Ship Positions

Dizelist

Last reported at 2014-Oct-20 12:33 UTC. Time now 2014-Oct-21 12:04 UTC.
Position N 45°01' E 035°28'.

Length 24 m; draft 1.8 m.

Type: Tug. MMSI: 272880800.

Date/timePositionNaut miles runAvg speedWind from/ knotsBaromVisibWave heightAir tempDewpointWater temp
2014-Oct-20 12:33N 45°01' E 035°28'88 3.6
2014-Oct-19 12:09N 44°40' E 037°29'2 4.0
2014-Oct-19 11:33N 44°38' E 037°31'4 3.9
2014-Oct-19 10:33N 44°36' E 037°36'4 4.5
2014-Oct-19 09:34N 44°36' E 037°42'4 4.1
2014-Oct-19 08:33N 44°35' E 037°48'4 4.1
2014-Oct-19 07:33N 44°35' E 037°54'4 3.9
2014-Oct-19 06:34N 44°33' E 037°59'4 3.5
2014-Oct-19 05:34N 44°34' E 038°04'0 0.1
2014-Oct-19 04:33N 44°34' E 038°04'0 0.0
2014-Oct-19 03:33N 44°34' E 038°04'0 0.0
2014-Oct-19 02:33N 44°34' E 038°04'0 0.0
2014-Oct-19 01:33N 44°34' E 038°04'0 0.0
2014-Oct-19 00:33N 44°34' E 038°04'0 0.0
2014-Oct-18 23:33N 44°34' E 038°04'0 0.0
2014-Oct-18 22:33N 44°34' E 038°04'0 0.0
2014-Oct-18 21:33N 44°34' E 038°04'0 0.0
2014-Oct-18 20:33N 44°34' E 038°04'0 0.0
2014-Oct-18 19:33N 44°34' E 038°04'0 0.0
2014-Oct-18 18:33N 44°34' E 038°04'0 0.0
2014-Oct-18 17:33N 44°34' E 038°04'0 0.1
2014-Oct-18 16:33N 44°34' E 038°04'0 0.1
2014-Oct-18 15:33N 44°34' E 038°04'0 0.0
2014-Oct-18 14:33N 44°34' E 038°04'1 1.5
2014-Oct-18 13:33N 44°35' E 038°02'0 0.0
2014-Oct-18 12:33N 44°35' E 038°02'0 0.0
2014-Oct-18 11:33N 44°35' E 038°02'0 0.2
2014-Oct-18 10:33N 44°35' E 038°02'0 0.0
2014-Oct-18 09:33N 44°35' E 038°02'0 0.0
2014-Oct-18 08:33N 44°35' E 038°02'0 0.0
2014-Oct-18 07:33N 44°35' E 038°02'0 0.0
2014-Oct-18 06:33N 44°35' E 038°02'0 0.0
2014-Oct-18 05:33N 44°35' E 038°02'0 0.0
2014-Oct-18 04:33N 44°35' E 038°02'0 0.0
2014-Oct-18 03:32N 44°35' E 038°02'0 0.0
2014-Oct-18 02:33N 44°35' E 038°02'0 0.0
2014-Oct-18 01:33N 44°35' E 038°02'0 0.0
2014-Oct-18 00:33N 44°35' E 038°02'0 0.0
2014-Oct-17 23:33N 44°35' E 038°02'0 0.0
2014-Oct-17 22:33N 44°35' E 038°02'0 0.0
2014-Oct-17 21:34N 44°35' E 038°02'0 0.0
2014-Oct-17 20:34N 44°35' E 038°02'0 0.0
2014-Oct-17 19:34N 44°35' E 038°02'0 0.0
2014-Oct-17 18:33N 44°35' E 038°02'0 0.0
2014-Oct-17 17:33N 44°35' E 038°02'0 0.0
2014-Oct-17 16:33N 44°35' E 038°02'0 0.0
2014-Oct-17 15:33N 44°35' E 038°02'0 0.0
2014-Oct-17 14:33N 44°35' E 038°02'0 0.0
2014-Oct-17 13:33N 44°35' E 038°02'0 0.0
2014-Oct-17 12:33N 44°35' E 038°02'0 0.0
2014-Oct-17 11:33N 44°35' E 038°02'0 0.0
2014-Oct-17 10:33N 44°35' E 038°02'0 0.1
2014-Oct-17 09:33N 44°35' E 038°02'2 1.6
2014-Oct-17 08:33N 44°33' E 038°02'1 1.5
2014-Oct-17 07:33N 44°34' E 038°04'0 0.0
2014-Oct-17 06:33N 44°34' E 038°04'0 0.0
2014-Oct-17 05:33N 44°34' E 038°04'0 0.0
2014-Oct-17 04:33N 44°34' E 038°04'0 0.0
2014-Oct-17 03:33N 44°34' E 038°04'0 0.0
2014-Oct-17 02:33N 44°34' E 038°04'0 0.0
2014-Oct-17 01:34N 44°34' E 038°04'0 0.0
2014-Oct-17 00:33N 44°34' E 038°04'0 0.0
2014-Oct-16 23:33N 44°34' E 038°04'0 0.0
2014-Oct-16 22:33N 44°34' E 038°04'0 0.0
2014-Oct-16 21:33N 44°34' E 038°04'0 0.0
2014-Oct-16 20:33N 44°34' E 038°04'0 0.0
2014-Oct-16 19:34N 44°34' E 038°04'0 0.0
2014-Oct-16 18:33N 44°34' E 038°04'0 0.0
2014-Oct-16 17:33N 44°34' E 038°04'2 1.8
2014-Oct-16 16:33N 44°33' E 038°02'4 3.9
2014-Oct-16 15:33N 44°30' E 038°05'4 4.1
2014-Oct-16 14:33N 44°26' E 038°09'11 4.7
2014-Oct-16 12:14N 44°20' E 038°21'4 5.2
2014-Oct-16 11:31N 44°18' E 038°26'  
2014-Oct-12 06:03N 44°12' E 038°36'1 1.8
2014-Oct-12 05:31N 44°13' E 038°35'27 1.8
2014-Oct-11 14:33N 44°25' E 038°01'3 3.0
2014-Oct-11 13:33N 44°26' E 037°57'3 2.9
2014-Oct-11 12:34N 44°27' E 037°53'3 2.7
2014-Oct-11 11:33N 44°29' E 037°50'3 2.7
2014-Oct-11 10:33N 44°30' E 037°47'3 2.7
2014-Oct-11 09:34N 44°31' E 037°43'3 2.7
2014-Oct-11 08:34N 44°32' E 037°40'3 2.6
2014-Oct-11 07:33N 44°33' E 037°36'3 2.6
2014-Oct-11 06:33N 44°34' E 037°33'3 2.6
2014-Oct-11 05:31N 44°36' E 037°30'2 2.5
2014-Oct-11 04:32N 44°37' E 037°27'22 2.6
2014-Oct-10 20:07N 44°51' E 037°03'7 2.6
2014-Oct-10 17:33N 44°54' E 036°54'3 2.5
2014-Oct-10 16:33N 44°55' E 036°51'3 2.6
2014-Oct-10 15:33N 44°55' E 036°47'3 2.6
2014-Oct-10 14:33N 44°56' E 036°43'  
Track history (hours):
 
Tides and Currents Weather Stations Pressure Air Temp Water Temp Dewpoint Dewpoint Depression Visibility Wind Speed Wind Dir Waves Ship Positions

Dizelist

Last reported at 2014-Oct-20 12:33 UTC. Time now 2014-Oct-21 12:04 UTC.
Position N 45°01' E 035°28'.

Length 24 m; draft 1.8 m.

Type: Tug. MMSI: 272880800.

Date/timePositionNaut miles runAvg speedWind from/ knotsBaromVisibWave heightAir tempDewpointWater temp
2014-Oct-20 12:33N 45°01' E 035°28'88 3.6
2014-Oct-19 12:09N 44°40' E 037°29'2 4.0
2014-Oct-19 11:33N 44°38' E 037°31'4 3.9
2014-Oct-19 10:33N 44°36' E 037°36'4 4.5
2014-Oct-19 09:34N 44°36' E 037°42'4 4.1
2014-Oct-19 08:33N 44°35' E 037°48'4 4.1
2014-Oct-19 07:33N 44°35' E 037°54'4 3.9
2014-Oct-19 06:34N 44°33' E 037°59'4 3.5
2014-Oct-19 05:34N 44°34' E 038°04'0 0.1
2014-Oct-19 04:33N 44°34' E 038°04'0 0.0
2014-Oct-19 03:33N 44°34' E 038°04'0 0.0
2014-Oct-19 02:33N 44°34' E 038°04'0 0.0
2014-Oct-19 01:33N 44°34' E 038°04'0 0.0
2014-Oct-19 00:33N 44°34' E 038°04'0 0.0
2014-Oct-18 23:33N 44°34' E 038°04'0 0.0
2014-Oct-18 22:33N 44°34' E 038°04'0 0.0
2014-Oct-18 21:33N 44°34' E 038°04'0 0.0
2014-Oct-18 20:33N 44°34' E 038°04'0 0.0
2014-Oct-18 19:33N 44°34' E 038°04'0 0.0
2014-Oct-18 18:33N 44°34' E 038°04'0 0.0
2014-Oct-18 17:33N 44°34' E 038°04'0 0.1
2014-Oct-18 16:33N 44°34' E 038°04'0 0.1
2014-Oct-18 15:33N 44°34' E 038°04'0 0.0
2014-Oct-18 14:33N 44°34' E 038°04'1 1.5
2014-Oct-18 13:33N 44°35' E 038°02'0 0.0
2014-Oct-18 12:33N 44°35' E 038°02'0 0.0
2014-Oct-18 11:33N 44°35' E 038°02'0 0.2
2014-Oct-18 10:33N 44°35' E 038°02'0 0.0
2014-Oct-18 09:33N 44°35' E 038°02'0 0.0
2014-Oct-18 08:33N 44°35' E 038°02'0 0.0
2014-Oct-18 07:33N 44°35' E 038°02'0 0.0
2014-Oct-18 06:33N 44°35' E 038°02'0 0.0
2014-Oct-18 05:33N 44°35' E 038°02'0 0.0
2014-Oct-18 04:33N 44°35' E 038°02'0 0.0
2014-Oct-18 03:32N 44°35' E 038°02'0 0.0
2014-Oct-18 02:33N 44°35' E 038°02'0 0.0
2014-Oct-18 01:33N 44°35' E 038°02'0 0.0
2014-Oct-18 00:33N 44°35' E 038°02'0 0.0
2014-Oct-17 23:33N 44°35' E 038°02'0 0.0
2014-Oct-17 22:33N 44°35' E 038°02'0 0.0
2014-Oct-17 21:34N 44°35' E 038°02'0 0.0
2014-Oct-17 20:34N 44°35' E 038°02'0 0.0
2014-Oct-17 19:34N 44°35' E 038°02'0 0.0
2014-Oct-17 18:33N 44°35' E 038°02'0 0.0
2014-Oct-17 17:33N 44°35' E 038°02'0 0.0
2014-Oct-17 16:33N 44°35' E 038°02'0 0.0
2014-Oct-17 15:33N 44°35' E 038°02'0 0.0
2014-Oct-17 14:33N 44°35' E 038°02'0 0.0
2014-Oct-17 13:33N 44°35' E 038°02'0 0.0
2014-Oct-17 12:33N 44°35' E 038°02'0 0.0
2014-Oct-17 11:33N 44°35' E 038°02'0 0.0
2014-Oct-17 10:33N 44°35' E 038°02'0 0.1
2014-Oct-17 09:33N 44°35' E 038°02'2 1.6
2014-Oct-17 08:33N 44°33' E 038°02'1 1.5
2014-Oct-17 07:33N 44°34' E 038°04'0 0.0
2014-Oct-17 06:33N 44°34' E 038°04'0 0.0
2014-Oct-17 05:33N 44°34' E 038°04'0 0.0
2014-Oct-17 04:33N 44°34' E 038°04'0 0.0
2014-Oct-17 03:33N 44°34' E 038°04'0 0.0
2014-Oct-17 02:33N 44°34' E 038°04'0 0.0
2014-Oct-17 01:34N 44°34' E 038°04'0 0.0
2014-Oct-17 00:33N 44°34' E 038°04'0 0.0
2014-Oct-16 23:33N 44°34' E 038°04'0 0.0
2014-Oct-16 22:33N 44°34' E 038°04'0 0.0
2014-Oct-16 21:33N 44°34' E 038°04'0 0.0
2014-Oct-16 20:33N 44°34' E 038°04'0 0.0
2014-Oct-16 19:34N 44°34' E 038°04'0 0.0
2014-Oct-16 18:33N 44°34' E 038°04'0 0.0
2014-Oct-16 17:33N 44°34' E 038°04'2 1.8
2014-Oct-16 16:33N 44°33' E 038°02'4 3.9
2014-Oct-16 15:33N 44°30' E 038°05'4 4.1
2014-Oct-16 14:33N 44°26' E 038°09'11 4.7
2014-Oct-16 12:14N 44°20' E 038°21'4 5.2
2014-Oct-16 11:31N 44°18' E 038°26'  
2014-Oct-12 06:03N 44°12' E 038°36'1 1.8
2014-Oct-12 05:31N 44°13' E 038°35'27 1.8
2014-Oct-11 14:33N 44°25' E 038°01'3 3.0
2014-Oct-11 13:33N 44°26' E 037°57'3 2.9
2014-Oct-11 12:34N 44°27' E 037°53'3 2.7
2014-Oct-11 11:33N 44°29' E 037°50'3 2.7
2014-Oct-11 10:33N 44°30' E 037°47'3 2.7
2014-Oct-11 09:34N 44°31' E 037°43'3 2.7
2014-Oct-11 08:34N 44°32' E 037°40'3 2.6
2014-Oct-11 07:33N 44°33' E 037°36'3 2.6
2014-Oct-11 06:33N 44°34' E 037°33'3 2.6
2014-Oct-11 05:31N 44°36' E 037°30'2 2.5
2014-Oct-11 04:32N 44°37' E 037°27'22 2.6
2014-Oct-10 20:07N 44°51' E 037°03'7 2.6
2014-Oct-10 17:33N 44°54' E 036°54'3 2.5
2014-Oct-10 16:33N 44°55' E 036°51'3 2.6
2014-Oct-10 15:33N 44°55' E 036°47'3 2.6
2014-Oct-10 14:33N 44°56' E 036°43'  

Dump ship's entire track history